createdAt,value
2023-04-12T00:00:35.361Z,10.17
2023-04-12T00:03:06.112Z,10.16
2023-04-12T00:05:34.763Z,10.16
2023-04-12T00:08:10.908Z,10.13
2023-04-12T00:10:41.737Z,10.10
2023-04-12T00:13:09.890Z,10.11
2023-04-12T00:15:45.645Z,10.13
2023-04-12T00:18:14.203Z,10.13
2023-04-12T00:20:43.149Z,10.14
2023-04-12T00:23:17.421Z,10.15
2023-04-12T00:25:45.548Z,10.11
2023-04-12T00:28:13.980Z,10.07
2023-04-12T00:30:42.567Z,10.06
2023-04-12T00:33:10.705Z,10.04
2023-04-12T00:35:38.747Z,10.02
2023-04-12T00:38:10.708Z,10.01
2023-04-12T00:40:43.126Z,10.01
2023-04-12T00:43:15.633Z,10.02
2023-04-12T00:45:44.563Z,10.04
2023-04-12T00:48:13.206Z,10.06
2023-04-12T00:50:44.799Z,10.08
2023-04-12T00:53:13.870Z,10.11
2023-04-12T00:55:44.509Z,10.13
2023-04-12T00:58:14.443Z,10.15
2023-04-12T01:00:50.527Z,10.16
2023-04-12T01:03:23.498Z,10.17
2023-04-12T01:06:09.838Z,10.20
2023-04-12T01:09:30.749Z,10.22
2023-04-12T01:12:07.864Z,10.23
2023-04-12T01:14:48.049Z,10.23
2023-04-12T01:17:21.064Z,10.25
2023-04-12T01:19:57.910Z,10.23
2023-04-12T01:22:51.262Z,10.19
2023-04-12T01:26:00.495Z,10.20
2023-04-12T01:28:34.089Z,10.22
2023-04-12T01:31:03.181Z,10.22
2023-04-12T01:33:31.837Z,10.24
2023-04-12T01:36:01.109Z,10.25
2023-04-12T01:38:29.920Z,10.27
2023-04-12T01:40:57.847Z,10.27
2023-04-12T01:43:25.855Z,10.29
2023-04-12T01:45:55.839Z,10.30
2023-04-12T01:48:24.374Z,10.32
2023-04-12T01:51:02.635Z,10.33
2023-04-12T01:53:49.655Z,10.33
2023-04-12T01:56:22.649Z,10.33
2023-04-12T01:58:51.857Z,10.33
2023-04-12T02:01:19.983Z,10.33
2023-04-12T02:03:50.072Z,10.33
2023-04-12T02:06:20.393Z,10.32
2023-04-12T02:08:49.110Z,10.33
2023-04-12T02:11:17.929Z,10.34
2023-04-12T02:13:46.374Z,10.34
2023-04-12T02:16:14.365Z,10.34
2023-04-12T02:18:43.138Z,10.35
2023-04-12T02:21:12.312Z,10.35
2023-04-12T02:23:44.103Z,10.32
2023-04-12T02:26:12.943Z,10.30
2023-04-12T02:28:41.731Z,10.28
2023-04-12T02:31:17.287Z,10.26
2023-04-12T02:33:46.766Z,10.23
2023-04-12T02:36:15.465Z,10.20
2023-04-12T02:38:45.019Z,10.17
2023-04-12T02:41:19.975Z,10.12
2023-04-12T02:43:48.590Z,10.07
2023-04-12T02:46:24.993Z,10.03
2023-04-12T02:48:57.236Z,10.03
2023-04-12T02:51:32.582Z,10.01
2023-04-12T02:54:03.968Z,10.00
2023-04-12T02:56:40.747Z,9.99
2023-04-12T02:59:23.117Z,9.97
2023-04-12T03:02:07.048Z,9.93
2023-04-12T03:04:39.898Z,9.89
2023-04-12T03:07:11.241Z,9.89
2023-04-12T03:09:50.179Z,9.89
2023-04-12T03:12:19.092Z,9.88
2023-04-12T03:14:57.641Z,9.87
2023-04-12T03:17:27.478Z,9.82
2023-04-12T03:19:58.182Z,9.77
2023-04-12T03:22:28.728Z,9.72
2023-04-12T03:24:58.829Z,9.67
2023-04-12T03:27:27.073Z,9.62
2023-04-12T03:29:56.485Z,9.59
2023-04-12T03:32:25.062Z,9.54
2023-04-12T03:34:53.501Z,9.47
2023-04-12T03:37:25.377Z,9.40
2023-04-12T03:39:55.605Z,9.37
2023-04-12T03:42:33.022Z,9.33
2023-04-12T03:45:16.218Z,9.25
2023-04-12T03:47:49.915Z,9.18
2023-04-12T03:50:19.906Z,9.09
2023-04-12T03:52:54.922Z,9.00
2023-04-12T03:55:24.797Z,8.94
2023-04-12T03:57:53.162Z,8.91
2023-04-12T04:00:23.216Z,8.88
2023-04-12T04:03:10.550Z,8.86
2023-04-12T04:05:48.139Z,8.84
2023-04-12T04:08:18.366Z,8.82
2023-04-12T04:10:51.422Z,8.82
2023-04-12T04:13:33.526Z,8.81
2023-04-12T04:16:10.523Z,8.79
2023-04-12T04:18:39.716Z,8.76
2023-04-12T04:22:53.531Z,8.69
2023-04-12T04:25:30.069Z,8.64
2023-04-12T04:28:02.991Z,8.64
2023-04-12T04:30:34.274Z,8.61
2023-04-12T04:33:02.786Z,8.60
2023-04-12T04:35:35.330Z,8.60
2023-04-12T04:38:34.074Z,8.62
2023-04-12T04:41:09.284Z,8.61
2023-04-12T04:43:51.843Z,8.62
2023-04-12T04:46:25.850Z,8.63
2023-04-12T04:48:58.778Z,8.64
2023-04-12T04:51:27.548Z,8.64
2023-04-12T04:53:56.795Z,8.62
2023-04-12T04:56:25.774Z,8.59
2023-04-12T04:58:57.027Z,8.56
2023-04-12T05:01:28.241Z,8.53
2023-04-12T05:04:01.093Z,8.52
2023-04-12T05:06:29.866Z,8.53
2023-04-12T05:09:00.964Z,8.54
2023-04-12T05:11:33.907Z,8.53
2023-04-12T05:14:04.390Z,8.48
2023-04-12T05:16:33.352Z,8.46
2023-04-12T05:19:06.191Z,8.45
2023-04-12T05:21:35.970Z,8.44
2023-04-12T05:24:04.615Z,8.44
2023-04-12T05:26:36.773Z,8.41
2023-04-12T05:29:07.530Z,8.38
2023-04-12T05:34:14.966Z,8.47
2023-04-12T05:36:47.950Z,8.55
2023-04-12T05:39:20.506Z,8.55
2023-04-12T05:41:48.329Z,8.57
2023-04-12T05:44:14.866Z,8.57
2023-04-12T05:46:41.868Z,8.55
2023-04-12T05:49:09.357Z,8.54
2023-04-12T05:51:41.447Z,8.54
2023-04-12T05:54:20.598Z,8.54
2023-04-12T05:56:48.089Z,8.54
2023-04-12T05:59:19.470Z,8.55
2023-04-12T06:01:46.133Z,8.61
2023-04-12T06:04:14.127Z,8.66
2023-04-12T06:06:46.942Z,8.73
2023-04-12T06:09:15.019Z,8.80
2023-04-12T06:11:42.029Z,8.87
2023-04-12T06:14:10.577Z,8.94
2023-04-12T06:16:42.074Z,8.97
2023-04-12T06:19:10.443Z,9.02
2023-04-12T06:21:41.546Z,9.08
2023-04-12T06:24:09.275Z,9.14
2023-04-12T06:26:39.621Z,9.16
2023-04-12T06:29:08.518Z,9.20
2023-04-12T06:31:35.723Z,9.21
2023-04-12T06:34:02.460Z,9.22
2023-04-12T06:36:29.702Z,9.23
2023-04-12T06:38:56.693Z,9.22
2023-04-12T06:41:23.486Z,9.22
2023-04-12T06:43:59.509Z,9.21
2023-04-12T06:46:32.228Z,9.23
2023-04-12T06:48:59.402Z,9.27
2023-04-12T06:51:27.621Z,9.31
2023-04-12T06:53:57.102Z,9.38
2023-04-12T06:56:24.735Z,9.45
2023-04-12T06:58:51.287Z,9.51
2023-04-12T07:01:18.072Z,9.55
2023-04-12T07:03:46.135Z,9.58
2023-04-12T07:06:24.205Z,9.60
2023-04-12T07:08:54.721Z,9.63
2023-04-12T07:11:22.322Z,9.66
2023-04-12T07:14:00.848Z,9.70
2023-04-12T07:16:30.096Z,9.74
2023-04-12T07:18:57.057Z,9.77
2023-04-12T07:21:32.318Z,9.81
2023-04-12T07:24:01.048Z,9.88
2023-04-12T07:26:28.146Z,9.95
2023-04-12T07:29:02.100Z,10.04
2023-04-12T07:33:28.049Z,10.27
2023-04-12T07:35:55.562Z,10.54
2023-04-12T07:38:22.632Z,10.68
2023-04-12T07:40:50.265Z,10.81
2023-04-12T07:43:20.697Z,10.94
2023-04-12T07:45:47.556Z,11.02
2023-04-12T07:48:14.948Z,11.07
2023-04-12T07:50:42.130Z,11.09
2023-04-12T07:53:27.041Z,11.14
2023-04-12T07:55:54.860Z,11.19
2023-04-12T07:58:23.299Z,11.25
2023-04-12T08:00:53.397Z,11.35
2023-04-12T08:03:21.181Z,11.48
2023-04-12T08:05:53.506Z,11.61
2023-04-12T08:08:24.402Z,11.72
2023-04-12T08:10:52.105Z,11.80
2023-04-12T08:13:19.056Z,11.84
2023-04-12T08:15:46.851Z,11.86
2023-04-12T08:18:13.899Z,11.84
2023-04-12T08:20:41.136Z,11.79
2023-04-12T08:23:10.938Z,11.75
2023-04-12T08:25:39.653Z,11.70
2023-04-12T08:28:09.508Z,11.67
2023-04-12T08:30:38.220Z,11.67
2023-04-12T08:33:05.402Z,11.66
2023-04-12T08:35:32.402Z,11.63
2023-04-12T08:38:07.014Z,11.63
2023-04-12T08:40:34.912Z,11.65
2023-04-12T08:43:03.410Z,11.62
2023-04-12T08:45:31.639Z,11.53
2023-04-12T08:48:00.080Z,11.46
2023-04-12T08:50:28.967Z,11.43
2023-04-12T08:52:56.366Z,11.43
2023-04-12T08:55:23.255Z,11.37
2023-04-12T08:57:53.880Z,11.29
2023-04-12T09:00:21.194Z,11.27
2023-04-12T09:02:52.457Z,11.25
2023-04-12T09:05:29.549Z,11.22
2023-04-12T09:07:57.994Z,11.19
2023-04-12T09:10:37.460Z,11.11
2023-04-12T09:13:06.278Z,11.05
2023-04-12T09:15:35.811Z,10.99
2023-04-12T09:18:04.328Z,10.92
2023-04-12T09:20:33.207Z,10.89
2023-04-12T09:23:00.472Z,10.86
2023-04-12T09:25:37.040Z,10.85
2023-04-12T09:28:17.846Z,10.85
2023-04-12T09:30:44.812Z,10.86
2023-04-12T09:33:12.757Z,10.87
2023-04-12T09:35:40.366Z,10.92
2023-04-12T09:38:08.276Z,10.99
2023-04-12T09:40:38.118Z,11.08
2023-04-12T09:43:05.903Z,11.17
2023-04-12T09:45:38.425Z,11.23
2023-04-12T09:48:06.525Z,11.27
2023-04-12T09:50:33.884Z,11.31
2023-04-12T09:53:04.559Z,11.40
2023-04-12T09:55:32.776Z,11.50
2023-04-12T09:58:02.304Z,11.63
2023-04-12T10:00:34.710Z,11.69
2023-04-12T10:03:04.090Z,11.73
2023-04-12T10:05:31.414Z,11.85
2023-04-12T10:07:59.093Z,12.06
2023-04-12T10:10:29.901Z,12.29
2023-04-12T10:12:57.055Z,12.48
2023-04-12T10:15:27.542Z,12.52
2023-04-12T10:17:58.443Z,12.44
2023-04-12T10:20:28.507Z,12.32
2023-04-12T10:22:58.873Z,12.23
2023-04-12T10:25:27.320Z,12.17
2023-04-12T10:27:55.117Z,12.07
2023-04-12T10:30:27.866Z,11.99
2023-04-12T10:33:02.755Z,11.97
2023-04-12T10:35:30.958Z,12.00
2023-04-12T10:38:00.977Z,11.99
2023-04-12T10:40:29.105Z,11.95
2023-04-12T10:43:18.369Z,11.91
2023-04-12T10:45:49.378Z,11.93
2023-04-12T10:48:31.900Z,11.94
2023-04-12T10:51:12.115Z,11.90
2023-04-12T10:53:40.546Z,11.86
2023-04-12T10:56:32.729Z,11.84
2023-04-12T10:59:09.072Z,11.85
2023-04-12T11:02:02.744Z,11.85
2023-04-12T11:04:30.877Z,11.88
2023-04-12T11:07:10.901Z,11.87
2023-04-12T11:10:01.104Z,11.89
2023-04-12T11:12:38.262Z,11.94
2023-04-12T11:15:06.420Z,12.01
2023-04-12T11:17:54.826Z,12.09
2023-04-12T11:20:21.913Z,12.16
2023-04-12T11:22:50.139Z,12.19
2023-04-12T11:25:17.797Z,12.16
2023-04-12T11:27:52.879Z,12.13
2023-04-12T11:30:20.233Z,12.12
2023-04-12T11:32:47.973Z,12.15
2023-04-12T11:35:15.936Z,12.14
2023-04-12T11:37:43.633Z,12.11
2023-04-12T11:40:10.935Z,12.08
2023-04-12T11:42:38.958Z,12.06
2023-04-12T11:45:14.263Z,12.05
2023-04-12T11:47:43.910Z,12.02
2023-04-12T11:50:12.112Z,11.94
2023-04-12T11:52:40.738Z,11.79
2023-04-12T11:55:10.459Z,11.62
2023-04-12T11:57:37.977Z,11.52
2023-04-12T12:00:06.448Z,11.46
2023-04-12T12:02:52.221Z,11.42
2023-04-12T12:05:29.970Z,11.41
2023-04-12T12:08:00.125Z,11.41
2023-04-12T12:10:49.214Z,11.46
2023-04-12T12:13:22.973Z,11.48
2023-04-12T12:15:53.099Z,11.49
2023-04-12T12:18:26.935Z,11.54
2023-04-12T12:20:55.146Z,11.57
2023-04-12T12:23:32.098Z,11.56
2023-04-12T12:26:10.509Z,11.52
2023-04-12T12:28:51.726Z,11.50
2023-04-12T12:31:20.742Z,11.48
2023-04-12T12:33:47.979Z,11.45
2023-04-12T12:36:20.185Z,11.43
2023-04-12T12:38:48.572Z,11.43
2023-04-12T12:41:19.856Z,11.42
2023-04-12T12:43:49.488Z,11.43
2023-04-12T12:46:17.177Z,11.42
2023-04-12T12:48:45.039Z,11.37
2023-04-12T12:51:13.361Z,11.30
2023-04-12T12:53:41.343Z,11.25
2023-04-12T12:56:09.515Z,11.20
2023-04-12T12:58:38.372Z,11.16
2023-04-12T13:01:07.968Z,11.12
2023-04-12T13:03:39.127Z,11.08
2023-04-12T13:06:08.231Z,11.04
2023-04-12T13:08:36.585Z,10.99
2023-04-12T13:11:03.492Z,10.97
2023-04-12T13:13:34.806Z,10.97
2023-04-12T13:16:01.816Z,10.99
2023-04-12T13:18:29.056Z,11.00
2023-04-12T13:21:01.689Z,11.00
2023-04-12T13:23:29.332Z,10.98
2023-04-12T13:25:56.029Z,10.96
2023-04-12T13:28:22.920Z,10.94
2023-04-12T13:30:50.549Z,10.89
2023-04-12T13:33:21.032Z,10.85
2023-04-12T13:35:49.400Z,10.80
2023-04-12T13:38:16.165Z,10.75
2023-04-12T13:40:43.795Z,10.71
2023-04-12T13:43:11.456Z,10.66
2023-04-12T13:45:39.237Z,10.62
2023-04-12T13:48:07.061Z,10.58
2023-04-12T13:50:34.651Z,10.52
2023-04-12T13:53:07.456Z,10.47
2023-04-12T13:55:35.093Z,10.40
2023-04-12T13:58:01.827Z,10.36
2023-04-12T14:00:29.165Z,10.34
2023-04-12T14:03:02.562Z,10.29
2023-04-12T14:05:29.839Z,10.22
2023-04-12T14:07:56.671Z,10.14
2023-04-12T14:10:25.366Z,10.08
2023-04-12T14:12:52.273Z,10.04
2023-04-12T14:15:19.569Z,10.01
2023-04-12T14:17:48.360Z,9.99
2023-04-12T14:20:18.791Z,9.97
2023-04-12T14:22:47.236Z,9.95
2023-04-12T14:25:14.428Z,9.93
2023-04-12T14:27:42.392Z,9.88
2023-04-12T14:30:09.569Z,9.86
2023-04-12T14:32:39.967Z,9.86
2023-04-12T14:35:08.907Z,9.85
2023-04-12T14:37:35.660Z,9.84
2023-04-12T14:40:06.040Z,9.83
2023-04-12T14:42:33.281Z,9.82
2023-04-12T14:45:06.144Z,9.81
2023-04-12T14:47:33.851Z,9.80
2023-04-12T14:50:01.881Z,9.80
2023-04-12T14:52:31.406Z,9.80
2023-04-12T14:54:58.591Z,9.81
2023-04-12T14:57:25.364Z,9.79
2023-04-12T14:59:52.154Z,9.79
2023-04-12T15:02:22.967Z,9.80
2023-04-12T15:04:51.542Z,9.80
2023-04-12T15:07:18.756Z,9.81
2023-04-12T15:09:45.858Z,9.79
2023-04-12T15:12:13.166Z,9.78
2023-04-12T15:14:46.777Z,9.78
2023-04-12T15:17:14.649Z,9.79
2023-04-12T15:19:41.697Z,9.80
2023-04-12T15:22:08.628Z,9.81
2023-04-12T15:24:37.813Z,9.82
2023-04-12T15:27:06.594Z,9.82
2023-04-12T15:29:35.116Z,9.83
2023-04-12T15:32:02.987Z,9.83
2023-04-12T15:34:33.329Z,9.84
2023-04-12T15:37:00.266Z,9.83
2023-04-12T15:39:28.112Z,9.83
2023-04-12T15:41:56.128Z,9.86
2023-04-12T15:44:25.682Z,9.88
2023-04-12T15:47:07.560Z,9.88
2023-04-12T15:49:40.868Z,9.88
2023-04-12T15:52:07.590Z,9.87
2023-04-12T15:54:43.071Z,9.87
2023-04-12T15:57:11.407Z,9.88
2023-04-12T15:59:41.485Z,9.88
2023-04-12T16:02:09.511Z,9.91
2023-04-12T16:04:37.520Z,9.92
2023-04-12T16:07:05.481Z,9.93
2023-04-12T16:09:34.317Z,9.94
2023-04-12T16:12:02.201Z,9.95
2023-04-12T16:14:31.781Z,9.96
2023-04-12T16:17:01.383Z,9.97
2023-04-12T16:19:29.131Z,9.97
2023-04-12T16:21:56.388Z,9.97
2023-04-12T16:24:28.601Z,9.97
2023-04-12T16:26:55.733Z,9.96
2023-04-12T16:29:23.580Z,9.97
2023-04-12T16:31:51.715Z,9.98
2023-04-12T16:34:21.478Z,10.00
2023-04-12T16:36:49.238Z,10.00
2023-04-12T16:39:16.145Z,9.97
2023-04-12T16:41:46.349Z,9.93
2023-04-12T16:44:20.386Z,9.94
2023-04-12T16:46:53.555Z,9.93
2023-04-12T16:49:22.624Z,9.92
2023-04-12T16:51:50.019Z,9.92
2023-04-12T16:54:17.391Z,9.92
2023-04-12T16:56:44.399Z,9.90
2023-04-12T16:59:11.614Z,9.88
2023-04-12T17:01:38.976Z,9.87
2023-04-12T17:04:06.059Z,9.85
2023-04-12T17:06:36.141Z,9.81
2023-04-12T17:09:06.378Z,9.78
2023-04-12T17:11:34.603Z,9.77
2023-04-12T17:14:02.266Z,9.73
2023-04-12T17:16:30.925Z,9.69
2023-04-12T17:18:59.701Z,9.67
2023-04-12T17:21:30.152Z,9.67
2023-04-12T17:24:01.970Z,9.65
2023-04-12T17:26:29.821Z,9.63
2023-04-12T17:29:00.679Z,9.63
2023-04-12T17:31:35.805Z,9.63
2023-04-12T17:34:12.955Z,9.62
2023-04-12T17:36:42.431Z,9.60
2023-04-12T17:39:09.814Z,9.59
2023-04-12T17:41:49.484Z,9.59
2023-04-12T17:44:17.514Z,9.60
2023-04-12T17:46:51.081Z,9.59
2023-04-12T17:49:19.731Z,9.58
2023-04-12T17:51:46.873Z,9.55
2023-04-12T17:54:16.462Z,9.51
2023-04-12T17:56:45.174Z,9.47
2023-04-12T17:59:14.208Z,9.43
2023-04-12T18:01:41.296Z,9.40
2023-04-12T18:04:11.282Z,9.37
2023-04-12T18:06:39.493Z,9.33
2023-04-12T18:09:11.066Z,9.29
2023-04-12T18:11:41.842Z,9.26
2023-04-12T18:14:09.220Z,9.20
2023-04-12T18:16:39.949Z,9.12
2023-04-12T18:19:12.628Z,9.00
2023-04-12T18:21:40.611Z,8.96
2023-04-12T18:24:07.654Z,8.96
2023-04-12T18:26:35.065Z,8.97
2023-04-12T18:29:02.042Z,8.96
2023-04-12T18:31:31.698Z,8.94
2023-04-12T18:33:59.941Z,8.92
2023-04-12T18:36:28.096Z,8.93
2023-04-12T18:38:55.217Z,8.94
2023-04-12T18:41:25.978Z,8.95
2023-04-12T18:43:56.139Z,8.93
2023-04-12T18:46:26.162Z,8.87
2023-04-12T18:48:58.661Z,8.85
2023-04-12T18:51:26.358Z,8.83
2023-04-12T18:53:57.510Z,8.82
2023-04-12T18:56:26.548Z,8.80
2023-04-12T18:58:55.870Z,8.80
2023-04-12T19:01:25.402Z,8.78
2023-04-12T19:03:55.760Z,8.76
2023-04-12T19:06:25.141Z,8.74
2023-04-12T19:08:52.345Z,8.70
2023-04-12T19:11:23.885Z,8.69
2023-04-12T19:13:52.946Z,8.66
2023-04-12T19:16:20.698Z,8.60
2023-04-12T19:18:55.095Z,8.54
2023-04-12T19:21:23.594Z,8.53
2023-04-12T19:23:51.273Z,8.52
2023-04-12T19:26:22.822Z,8.51
2023-04-12T19:28:54.802Z,8.49
2023-04-12T19:31:23.186Z,8.47
2023-04-12T19:33:56.005Z,8.44
2023-04-12T19:36:24.065Z,8.39
2023-04-12T19:38:52.317Z,8.36
2023-04-12T19:41:20.097Z,8.36
2023-04-12T19:43:47.597Z,8.37
2023-04-12T19:46:16.930Z,8.36
2023-04-12T19:49:56.539Z,8.38
2023-04-12T19:52:27.272Z,8.34
2023-04-12T19:54:57.472Z,8.34
2023-04-12T19:57:27.603Z,8.32
2023-04-12T19:59:56.076Z,8.30
2023-04-12T20:02:25.841Z,8.28
2023-04-12T20:04:53.889Z,8.27
2023-04-12T20:07:21.990Z,8.25
2023-04-12T20:09:50.369Z,8.23
2023-04-12T20:12:19.350Z,8.22
2023-04-12T20:14:48.244Z,8.20
2023-04-12T20:17:16.302Z,8.19
2023-04-12T20:19:44.389Z,8.18
2023-04-12T20:22:13.536Z,8.17
2023-04-12T20:24:42.020Z,8.14
2023-04-12T20:27:11.561Z,8.11
2023-04-12T20:29:41.969Z,8.08
2023-04-12T20:32:10.272Z,8.06
2023-04-12T20:34:38.574Z,8.05
2023-04-12T20:37:06.853Z,8.06
2023-04-12T20:39:35.287Z,8.08
2023-04-12T20:42:03.733Z,8.09
2023-04-12T20:44:31.908Z,8.07
2023-04-12T20:47:02.766Z,8.04
2023-04-12T20:49:31.989Z,8.04
2023-04-12T20:52:00.980Z,8.03
2023-04-12T20:54:31.618Z,8.03
2023-04-12T20:57:00.320Z,8.01
2023-04-12T20:59:34.148Z,7.98
2023-04-12T21:04:48.520Z,7.95
2023-04-12T21:07:31.190Z,7.94
2023-04-12T21:10:26.729Z,7.93
2023-04-12T21:13:23.813Z,7.93
2023-04-12T21:16:16.129Z,7.95
2023-04-12T21:18:59.499Z,7.96
2023-04-12T21:21:50.985Z,7.94
2023-04-12T21:24:20.632Z,7.95
2023-04-12T21:26:58.336Z,7.95
2023-04-12T21:29:32.700Z,7.95
2023-04-12T21:32:02.507Z,7.94
2023-04-12T21:34:32.621Z,7.94
2023-04-12T21:37:01.350Z,7.96
2023-04-12T21:39:29.876Z,7.98
2023-04-12T21:41:58.189Z,8.01
2023-04-12T21:44:26.968Z,8.01
2023-04-12T21:46:55.074Z,8.01
2023-04-12T21:49:24.337Z,8.01
2023-04-12T21:51:57.044Z,8.00
2023-04-12T21:54:29.096Z,8.01
2023-04-12T21:56:58.410Z,8.02
2023-04-12T21:59:30.741Z,8.01
2023-04-12T22:02:13.409Z,8.00
2023-04-12T22:05:12.799Z,7.96
2023-04-12T22:07:55.398Z,7.93
2023-04-12T22:10:23.695Z,7.92
2023-04-12T22:12:56.546Z,7.94
2023-04-12T22:15:42.378Z,7.95
2023-04-12T22:18:37.436Z,7.97
2023-04-12T22:21:26.584Z,7.96
2023-04-12T22:24:08.899Z,7.93
2023-04-12T22:26:37.176Z,7.87
2023-04-12T22:29:08.055Z,7.83
2023-04-12T22:31:38.619Z,7.80
2023-04-12T22:34:07.563Z,7.76
2023-04-12T22:36:42.354Z,7.72
2023-04-12T22:39:10.904Z,7.69
2023-04-12T22:41:39.160Z,7.65
2023-04-12T22:44:09.508Z,7.63
2023-04-12T22:46:39.409Z,7.59
2023-04-12T22:49:07.843Z,7.55
2023-04-12T22:51:36.616Z,7.52
2023-04-12T22:54:06.259Z,7.47
2023-04-12T22:56:34.573Z,7.42
2023-04-12T22:59:05.239Z,7.37
2023-04-12T23:01:34.710Z,7.33
2023-04-12T23:04:02.754Z,7.29
2023-04-12T23:06:31.924Z,7.26
2023-04-12T23:09:01.630Z,7.24
2023-04-12T23:11:29.905Z,7.20
2023-04-12T23:14:04.832Z,7.17
2023-04-12T23:16:34.357Z,7.16
2023-04-12T23:19:06.453Z,7.15
2023-04-12T23:21:36.092Z,7.11
2023-04-12T23:24:08.090Z,7.06
2023-04-12T23:26:36.730Z,7.03
2023-04-12T23:29:04.803Z,7.01
2023-04-12T23:31:35.928Z,7.00
2023-04-12T23:34:06.377Z,6.99
2023-04-12T23:36:34.505Z,7.00
2023-04-12T23:39:08.687Z,6.99
2023-04-12T23:41:36.636Z,6.96
2023-04-12T23:44:06.581Z,6.98
2023-04-12T23:46:35.223Z,7.00
2023-04-12T23:49:03.351Z,7.01
2023-04-12T23:51:34.089Z,7.03
2023-04-12T23:54:02.034Z,7.03
2023-04-12T23:56:30.958Z,7.01
2023-04-12T23:58:58.977Z,6.99
